Time;durP1;ratioP1;P1;durP2;ratioP2;P2;SDS_P1;SDS_P2;PMS_P1;PMS_P2;Temp;Humidity;BMP_temperature;BMP_pressure;BME280_temperature;BME280_humidity;BME280_pressure;Samples;Min_cycle;Max_cycle;Signal;HPM_P1;HPM_P2
2024/01/29 00:01:18;;;;;;;11.57;3.22;;;;;;;;;;6118017;23;20081;-57
2024/01/29 00:04:06;;;;;;;14.95;3.33;;;;;;;;;;6119547;23;20049;-60
2024/01/29 00:07:00;;;;;;;11.38;2.67;;;;;;;;;;6116996;23;20060;-60
2024/01/29 00:09:54;;;;;;;14.65;3.38;;;;;;;;;;6114327;23;20022;-60
2024/01/29 00:12:48;;;;;;;8.27;2.80;;;;;;;;;;6114474;23;20791;-60
2024/01/29 00:15:36;;;;;;;12.80;2.72;;;;;;;;;;6114973;23;20392;-54
2024/01/29 00:18:17;;;;;;;13.93;3.40;;;;;;;;;;6135374;23;20029;-51
2024/01/29 00:20:44;;;;;;;14.38;3.50;;;;;;;;;;6145570;23;20025;-53
2024/01/29 00:23:18;;;;;;;12.43;3.15;;;;;;;;;;6143872;23;20287;-52
2024/01/29 00:25:52;;;;;;;14.98;3.20;;;;;;;;;;6144843;23;20096;-54
2024/01/29 00:28:26;;;;;;;10.93;3.17;;;;;;;;;;6145720;23;20021;-50
2024/01/29 00:31:00;;;;;;;11.05;2.88;;;;;;;;;;6142671;23;20026;-51
2024/01/29 00:33:35;;;;;;;14.73;2.97;;;;;;;;;;6145376;23;20826;-58
2024/01/29 00:36:03;;;;;;;12.02;3.78;;;;;;;;;;6144655;23;20795;-58
2024/01/29 00:38:31;;;;;;;15.63;3.38;;;;;;;;;;6143026;23;20033;-57
2024/01/29 00:41:05;;;;;;;11.45;2.65;;;;;;;;;;6145628;23;20036;-57
2024/01/29 00:43:32;;;;;;;13.43;3.40;;;;;;;;;;6144741;23;20818;-62
2024/01/29 00:46:06;;;;;;;11.82;3.47;;;;;;;;;;6146462;23;20021;-60
2024/01/29 00:48:33;;;;;;;10.00;2.90;;;;;;;;;;6143669;23;20029;-60
2024/01/29 00:51:01;;;;;;;11.43;2.67;;;;;;;;;;6144294;23;20594;-60
2024/01/29 00:53:35;;;;;;;18.83;3.42;;;;;;;;;;6145018;23;20026;-60
2024/01/29 00:56:02;;;;;;;9.60;2.90;;;;;;;;;;6145181;23;20029;-60
2024/01/29 00:58:36;;;;;;;9.80;2.60;;;;;;;;;;6146638;23;20025;-60
2024/01/29 01:01:03;;;;;;;11.13;2.80;;;;;;;;;;6144858;23;20021;-60
2024/01/29 01:03:37;;;;;;;9.70;2.83;;;;;;;;;;6144365;23;20056;-60
2024/01/29 01:06:04;;;;;;;11.13;2.83;;;;;;;;;;6146376;23;20442;-60
2024/01/29 01:08:32;;;;;;;6.78;2.78;;;;;;;;;;6119039;23;20844;-60
2024/01/29 01:11:07;;;;;;;18.35;3.50;;;;;;;;;;6141724;23;20474;-55
2024/01/29 01:13:53;;;;;;;9.27;3.05;;;;;;;;;;6142636;23;20029;-62
2024/01/29 01:16:47;;;;;;;11.85;3.10;;;;;;;;;;6143306;23;20336;-62
2024/01/29 01:19:48;;;;;;;10.02;3.22;;;;;;;;;;6143098;23;20029;-62
2024/01/29 01:22:42;;;;;;;18.75;2.67;;;;;;;;;;6142271;23;20084;-62
2024/01/29 01:25:30;;;;;;;11.05;3.03;;;;;;;;;;6145486;23;20021;-63
2024/01/29 01:28:23;;;;;;;15.25;3.47;;;;;;;;;;6146819;23;20028;-60
2024/01/29 01:31:10;;;;;;;15.80;3.22;;;;;;;;;;6146927;23;20021;-53
2024/01/29 01:34:04;;;;;;;12.90;2.80;;;;;;;;;;6144781;23;20017;-60
2024/01/29 01:36:51;;;;;;;15.25;3.30;;;;;;;;;;6144806;23;20093;-60
2024/01/29 01:39:45;;;;;;;13.20;3.10;;;;;;;;;;6144348;23;20029;-61
2024/01/29 01:42:32;;;;;;;21.48;3.70;;;;;;;;;;6143862;23;20087;-60
2024/01/29 01:45:28;;;;;;;14.23;3.60;;;;;;;;;;6144191;23;20109;-60
2024/01/29 01:48:13;;;;;;;11.82;2.95;;;;;;;;;;6142921;23;20035;-48
2024/01/29 01:51:07;;;;;;;15.95;3.03;;;;;;;;;;6143680;23;20029;-51
2024/01/29 01:53:55;;;;;;;10.75;3.30;;;;;;;;;;6143330;23;20025;-50
2024/01/29 01:56:49;;;;;;;18.42;3.85;;;;;;;;;;6142869;23;20022;-49
2024/01/29 01:59:39;;;;;;;18.90;3.90;;;;;;;;;;6141365;23;20093;-58
2024/01/29 02:02:32;;;;;;;12.75;3.58;;;;;;;;;;6143758;23;20362;-52
2024/01/29 02:05:19;;;;;;;18.00;3.45;;;;;;;;;;6143971;23;20093;-51
2024/01/29 02:08:14;;;;;;;11.77;3.42;;;;;;;;;;6143433;23;20028;-47
2024/01/29 02:10:41;;;;;;;14.23;3.80;;;;;;;;;;6143798;23;20033;-48
2024/01/29 02:13:14;;;;;;;12.85;3.50;;;;;;;;;;6143481;23;20057;-54
2024/01/29 02:15:48;;;;;;;18.83;3.47;;;;;;;;;;6142010;23;20026;-53
2024/01/29 02:18:21;;;;;;;12.40;3.25;;;;;;;;;;6141349;23;20032;-54
2024/01/29 02:20:55;;;;;;;17.02;3.17;;;;;;;;;;6142036;23;20538;-55
2024/01/29 02:23:22;;;;;;;17.80;3.95;;;;;;;;;;6144507;23;20199;-55
2024/01/29 02:25:50;;;;;;;24.40;4.40;;;;;;;;;;6142693;23;20737;-59
2024/01/29 02:28:25;;;;;;;10.35;3.55;;;;;;;;;;6141670;23;20025;-56
2024/01/29 02:30:53;;;;;;;16.63;3.88;;;;;;;;;;6143283;23;20427;-62
2024/01/29 02:33:27;;;;;;;14.70;3.42;;;;;;;;;;6143921;23;20029;-63
2024/01/29 02:35:56;;;;;;;;;;;;;;;;;;6143779;23;20048;-63
2024/01/29 02:38:23;;;;;;;17.98;3.47;;;;;;;;;;6143043;23;19928;-63
2024/01/29 02:40:57;;;;;;;13.63;4.43;;;;;;;;;;6143046;23;20021;-63
2024/01/29 02:43:30;;;;;;;13.43;3.70;;;;;;;;;;6144020;23;20036;-62
2024/01/29 02:46:04;;;;;;;22.48;3.67;;;;;;;;;;6141987;23;20025;-61
2024/01/29 02:48:31;;;;;;;17.05;4.38;;;;;;;;;;6141962;23;20032;-61
2024/01/29 02:50:59;;;;;;;;;;;;;;;;;;6143193;23;20022;-61
2024/01/29 02:53:33;;;;;;;23.02;5.25;;;;;;;;;;6143031;23;19986;-62
2024/01/29 02:56:00;;;;;;;;;;;;;;;;;;6145518;23;20029;-53
2024/01/29 02:58:34;;;;;;;16.02;4.03;;;;;;;;;;6143624;23;19984;-60
2024/01/29 03:01:01;;;;;;;18.45;4.35;;;;;;;;;;6143903;23;20025;-60
2024/01/29 03:03:29;;;;;;;15.98;4.00;;;;;;;;;;6142037;23;20536;-60
2024/01/29 03:06:02;;;;;;;18.08;3.90;;;;;;;;;;6143972;23;20118;-62
2024/01/29 03:08:30;;;;;;;15.55;3.85;;;;;;;;;;6143378;23;20838;-59
2024/01/29 03:11:04;;;;;;;19.58;4.40;;;;;;;;;;6145316;23;20025;-59
2024/01/29 03:13:31;;;;;;;16.15;3.95;;;;;;;;;;6143671;23;20025;-50
2024/01/29 03:15:59;;;;;;;;;;;;;;;;;;6142055;23;20037;-50
2024/01/29 03:18:39;;;;;;;13.38;3.63;;;;;;;;;;6141351;23;20483;-53
2024/01/29 03:21:13;;;;;;;19.63;4.00;;;;;;;;;;6141887;23;20025;-56
2024/01/29 03:23:47;;;;;;;16.80;3.88;;;;;;;;;;6141935;23;20521;-62
2024/01/29 03:26:34;;;;;;;21.10;3.70;;;;;;;;;;6144797;23;20029;-60
2024/01/29 03:29:28;;;;;;;15.40;3.78;;;;;;;;;;6141836;23;20032;-59
2024/01/29 03:32:22;;;;;;;21.13;3.70;;;;;;;;;;6144287;23;20029;-59
2024/01/29 03:35:16;;;;;;;20.92;4.47;;;;;;;;;;6142865;23;20048;-60
2024/01/29 03:38:10;;;;;;;16.30;4.93;;;;;;;;;;6144388;23;20033;-60
2024/01/29 03:40:57;;;;;;;28.92;4.93;;;;;;;;;;6146576;23;20025;-62
2024/01/29 03:43:51;;;;;;;15.75;4.40;;;;;;;;;;6144142;23;20080;-63
2024/01/29 03:46:38;;;;;;;15.23;4.70;;;;;;;;;;6144242;23;20021;-62
2024/01/29 03:49:32;;;;;;;13.30;3.97;;;;;;;;;;6144320;23;20029;-62
2024/01/29 03:52:19;;;;;;;18.02;4.32;;;;;;;;;;6143784;23;20029;-53
2024/01/29 03:55:13;;;;;;;16.23;3.80;;;;;;;;;;6144597;23;20131;-52
2024/01/29 03:58:00;;;;;;;14.80;4.43;;;;;;;;;;6144302;23;20092;-53
2024/01/29 04:00:54;;;;;;;21.17;4.40;;;;;;;;;;6144493;23;20401;-52
2024/01/29 04:03:41;;;;;;;22.20;4.55;;;;;;;;;;6143578;23;20805;-52
2024/01/29 04:06:35;;;;;;;15.43;4.13;;;;;;;;;;6142712;23;20045;-53
2024/01/29 04:09:23;;;;;;;17.30;4.90;;;;;;;;;;6143099;23;20061;-62
2024/01/29 04:12:17;;;;;;;19.55;3.92;;;;;;;;;;6144283;23;20022;-62
2024/01/29 04:15:05;;;;;;;22.45;4.13;;;;;;;;;;6143908;23;20837;-63
2024/01/29 04:18:06;;;;;;;16.85;4.22;;;;;;;;;;6142872;23;20065;-63
2024/01/29 04:21:00;;;;;;;23.92;4.57;;;;;;;;;;6142744;23;20522;-61
2024/01/29 04:23:53;;;;;;;20.58;4.80;;;;;;;;;;6142718;23;20028;-57
2024/01/29 04:26:40;;;;;;;16.15;4.80;;;;;;;;;;6142849;23;20044;-56
2024/01/29 04:29:34;;;;;;;14.68;4.25;;;;;;;;;;6145648;23;20029;-58
2024/01/29 04:32:21;;;;;;;26.08;4.70;;;;;;;;;;6145540;23;20455;-57
2024/01/29 04:35:15;;;;;;;18.27;4.13;;;;;;;;;;6144471;23;20060;-57
2024/01/29 04:38:02;;;;;;;21.00;4.50;;;;;;;;;;6145654;23;20471;-60
2024/01/29 04:40:56;;;;;;;18.75;4.63;;;;;;;;;;6145207;23;20084;-60
2024/01/29 04:43:43;;;;;;;21.10;4.47;;;;;;;;;;6144376;23;20028;-59
2024/01/29 04:46:37;;;;;;;25.80;4.90;;;;;;;;;;6144296;23;20032;-60
2024/01/29 04:49:24;;;;;;;16.80;3.85;;;;;;;;;;6144587;23;20392;-68
2024/01/29 04:52:18;;;;;;;22.98;4.80;;;;;;;;;;6144813;23;20026;-61
2024/01/29 04:55:05;;;;;;;20.42;4.95;;;;;;;;;;6144256;23;20451;-61
2024/01/29 04:57:59;;;;;;;20.55;4.60;;;;;;;;;;6140004;23;20467;-61
2024/01/29 05:00:47;;;;;;;22.00;5.78;;;;;;;;;;6143345;23;20025;-61
2024/01/29 05:03:40;;;;;;;18.50;4.55;;;;;;;;;;6142411;23;20037;-60
2024/01/29 05:06:34;;;;;;;21.35;3.83;;;;;;;;;;6146605;23;20073;-57
2024/01/29 05:09:28;;;;;;;17.27;4.50;;;;;;;;;;6146484;23;20064;-55
2024/01/29 05:12:23;;;;;;;20.90;4.85;;;;;;;;;;6146368;23;20439;-56
2024/01/29 05:15:16;;;;;;;13.57;4.78;;;;;;;;;;6145069;23;20867;-57
2024/01/29 05:18:17;;;;;;;24.98;5.90;;;;;;;;;;6144014;23;20471;-52
2024/01/29 05:21:12;;;;;;;17.05;4.60;;;;;;;;;;6144336;23;20028;-61
2024/01/29 05:24:05;;;;;;;27.38;6.20;;;;;;;;;;6142582;23;20044;-61
2024/01/29 05:26:52;;;;;;;24.52;4.38;;;;;;;;;;6145894;23;20040;-62
2024/01/29 05:29:46;;;;;;;24.30;4.63;;;;;;;;;;6145233;23;20025;-61
2024/01/29 05:32:33;;;;;;;30.52;6.38;;;;;;;;;;6145727;23;20053;-62
2024/01/29 05:35:47;;;;;;;17.92;4.60;;;;;;;;;;6146462;23;20068;-60
2024/01/29 05:38:41;;;;;;;20.55;5.38;;;;;;;;;;6145657;23;20656;-60
2024/01/29 05:41:35;;;;;;;16.90;4.78;;;;;;;;;;6144414;23;20021;-60
2024/01/29 05:44:22;;;;;;;17.60;5.22;;;;;;;;;;6146035;23;20025;-60
2024/01/29 05:47:16;;;;;;;19.10;4.65;;;;;;;;;;6145813;23;20084;-54
2024/01/29 05:50:05;;;;;;;13.73;4.00;;;;;;;;;;6144058;23;20068;-62
2024/01/29 05:52:57;;;;;;;26.02;4.88;;;;;;;;;;6144961;23;20044;-62
2024/01/29 05:55:44;;;;;;;20.05;5.95;;;;;;;;;;6141636;23;20407;-62
2024/01/29 05:58:38;;;;;;;17.77;4.75;;;;;;;;;;6141643;23;20037;-62
2024/01/29 06:01:25;;;;;;;17.92;4.15;;;;;;;;;;6145132;23;20025;-63
2024/01/29 06:04:19;;;;;;;23.35;5.28;;;;;;;;;;6144881;23;20018;-60
2024/01/29 06:07:07;;;;;;;21.35;5.30;;;;;;;;;;6144178;23;20022;-60
2024/01/29 06:10:00;;;;;;;19.15;5.13;;;;;;;;;;6145239;23;20025;-60
2024/01/29 06:12:54;;;;;;;23.88;5.57;;;;;;;;;;6144894;23;20029;-61
2024/01/29 06:15:41;;;;;;;20.25;5.68;;;;;;;;;;6144271;23;20021;-61
2024/01/29 06:18:42;;;;;;;17.50;4.85;;;;;;;;;;6144206;23;20375;-61
2024/01/29 06:21:29;;;;;;;20.60;5.43;;;;;;;;;;6146242;23;20025;-61
2024/01/29 06:24:23;;;;;;;22.83;5.28;;;;;;;;;;6144910;23;20025;-61
2024/01/29 06:27:17;;;;;;;16.38;4.65;;;;;;;;;;6144089;23;20084;-61
2024/01/29 06:30:04;;;;;;;17.77;4.60;;;;;;;;;;6145429;23;20024;-61
2024/01/29 06:32:58;;;;;;;17.35;4.82;;;;;;;;;;6144645;23;20029;-50
2024/01/29 06:35:45;;;;;;;21.00;4.88;;;;;;;;;;6145564;23;20018;-68
2024/01/29 06:38:40;;;;;;;28.30;5.40;;;;;;;;;;6145495;23;20414;-68
2024/01/29 06:41:27;;;;;;;22.20;5.18;;;;;;;;;;6145975;23;20542;-67
2024/01/29 06:44:21;;;;;;;22.00;5.15;;;;;;;;;;6146069;23;20025;-68
2024/01/29 06:47:08;;;;;;;20.20;5.28;;;;;;;;;;6145526;23;20388;-68
2024/01/29 06:50:02;;;;;;;26.15;6.05;;;;;;;;;;6144716;23;20032;-59
2024/01/29 06:52:50;;;;;;;20.13;5.10;;;;;;;;;;6144343;23;20026;-60
2024/01/29 06:55:43;;;;;;;23.00;5.85;;;;;;;;;;6144224;23;20029;-60
2024/01/29 06:58:37;;;;;;;21.67;5.38;;;;;;;;;;6144989;23;20021;-60
2024/01/29 07:01:32;;;;;;;14.70;4.68;;;;;;;;;;6144570;23;20037;-60
2024/01/29 07:04:17;;;;;;;21.65;5.95;;;;;;;;;;6142990;23;20026;-60
2024/01/29 07:07:11;;;;;;;26.10;5.40;;;;;;;;;;6145131;23;20100;-60
2024/01/29 07:09:58;;;;;;;24.98;5.68;;;;;;;;;;6144239;23;20042;-60
2024/01/29 07:12:52;;;;;;;20.05;4.93;;;;;;;;;;6143569;23;20056;-60
2024/01/29 07:15:46;;;;;;;17.63;5.35;;;;;;;;;;6143482;23;20068;-59
2024/01/29 07:18:40;;;;;;;26.95;5.40;;;;;;;;;;6143512;23;20088;-59
2024/01/29 07:21:33;;;;;;;19.83;5.30;;;;;;;;;;6144346;23;20057;-59
2024/01/29 07:24:21;;;;;;;19.58;4.95;;;;;;;;;;6120592;23;20029;-58
2024/01/29 07:27:14;;;;;;;15.23;4.82;;;;;;;;;;6145861;23;20045;-57
2024/01/29 07:30:01;;;;;;;26.83;5.95;;;;;;;;;;6144067;23;20033;-60
2024/01/29 07:32:55;;;;;;;22.63;5.20;;;;;;;;;;6143806;23;20068;-60
2024/01/29 07:35:43;;;;;;;25.70;5.00;;;;;;;;;;6145925;23;20024;-60
2024/01/29 07:38:36;;;;;;;26.30;5.25;;;;;;;;;;6146487;23;20459;-60
2024/01/29 07:41:23;;;;;;;20.55;5.32;;;;;;;;;;6145894;23;20022;-60
2024/01/29 07:44:17;;;;;;;21.50;5.80;;;;;;;;;;6146313;23;20022;-60
2024/01/29 07:47:04;;;;;;;27.83;5.95;;;;;;;;;;6145136;23;20084;-60
2024/01/29 07:49:58;;;;;;;19.38;5.40;;;;;;;;;;6144119;23;20116;-59
2024/01/29 07:52:45;;;;;;;27.85;6.32;;;;;;;;;;6144668;23;20022;-60
2024/01/29 07:55:39;;;;;;;22.10;5.75;;;;;;;;;;6144004;23;20463;-60
2024/01/29 07:58:26;;;;;;;27.23;5.35;;;;;;;;;;6145476;23;20421;-63
2024/01/29 08:01:20;;;;;;;26.83;5.70;;;;;;;;;;6143857;23;20021;-59
2024/01/29 08:04:07;;;;;;;26.40;5.93;;;;;;;;;;6146495;23;20534;-59
2024/01/29 08:07:01;;;;;;;20.00;5.50;;;;;;;;;;6147881;23;20053;-59
2024/01/29 08:09:48;;;;;;;29.08;5.93;;;;;;;;;;6146277;23;20468;-58
2024/01/29 08:12:42;;;;;;;28.13;6.72;;;;;;;;;;6146958;23;20025;-58
2024/01/29 08:15:36;;;;;;;31.33;6.45;;;;;;;;;;6146877;23;20165;-55
2024/01/29 08:18:31;;;;;;;32.50;7.70;;;;;;;;;;6146085;23;20021;-52
2024/01/29 08:21:32;;;;;;;34.50;7.30;;;;;;;;;;6147019;23;20026;-54
2024/01/29 08:24:25;;;;;;;31.60;6.13;;;;;;;;;;6145757;23;20026;-55
2024/01/29 08:27:19;;;;;;;32.03;6.65;;;;;;;;;;6148008;23;20028;-60
2024/01/29 08:30:07;;;;;;;27.95;7.15;;;;;;;;;;6146799;23;20469;-64
2024/01/29 08:33:00;;;;;;;32.70;6.95;;;;;;;;;;6148033;23;20029;-63
2024/01/29 08:35:48;;;;;;;33.25;7.82;;;;;;;;;;6147326;23;20025;-63
2024/01/29 08:38:41;;;;;;;34.33;7.30;;;;;;;;;;6147566;23;20025;-63
2024/01/29 08:41:28;;;;;;;33.20;8.07;;;;;;;;;;6147632;23;20029;-63
2024/01/29 08:44:22;;;;;;;32.30;7.32;;;;;;;;;;6145755;23;20025;-52
2024/01/29 08:47:09;;;;;;;41.47;9.27;;;;;;;;;;6145658;23;20081;-51
2024/01/29 08:50:03;;;;;;;36.55;7.45;;;;;;;;;;6146145;23;20096;-52
2024/01/29 08:52:50;;;;;;;32.80;7.22;;;;;;;;;;6145471;23;20027;-51
2024/01/29 08:55:45;;;;;;;36.92;7.60;;;;;;;;;;6145724;23;20021;-60
2024/01/29 08:58:34;;;;;;;34.97;6.85;;;;;;;;;;6147568;23;20080;-63
2024/01/29 09:01:28;;;;;;;30.00;8.27;;;;;;;;;;6146207;23;20021;-63
2024/01/29 09:04:23;;;;;;;31.60;7.45;;;;;;;;;;6147359;23;20080;-63
2024/01/29 09:07:10;;;;;;;35.58;7.10;;;;;;;;;;6147092;23;20072;-63
2024/01/29 09:10:11;;;;;;;39.30;8.60;;;;;;;;;;6146074;23;20029;-63
2024/01/29 09:12:58;;;;;;;43.00;8.20;;;;;;;;;;6145746;23;20029;-53
2024/01/29 09:15:52;;;;;;;37.25;7.68;;;;;;;;;;6145486;23;20032;-54
2024/01/29 09:18:46;;;;;;;41.38;7.65;;;;;;;;;;6146762;23;20080;-57
2024/01/29 09:21:46;;;;;;;51.25;9.23;;;;;;;;;;6146469;23;20021;-57
2024/01/29 09:24:40;;;;;;;41.88;7.85;;;;;;;;;;6145665;23;20032;-62
2024/01/29 09:27:35;;;;;;;39.53;7.68;;;;;;;;;;6146653;23;20435;-55
2024/01/29 09:30:28;;;;;;;45.28;8.70;;;;;;;;;;6146036;23;20025;-48
2024/01/29 09:33:22;;;;;;;34.20;8.27;;;;;;;;;;6147128;23;20022;-54
2024/01/29 09:36:19;;;;;;;40.65;7.97;;;;;;;;;;6145660;23;20029;-53
2024/01/29 09:39:12;;;;;;;48.97;8.20;;;;;;;;;;6146767;23;20347;-51
2024/01/29 09:42:03;;;;;;;45.60;9.70;;;;;;;;;;6148490;23;20026;-54
2024/01/29 09:44:59;;;;;;;42.28;8.82;;;;;;;;;;6146653;23;20091;-53
2024/01/29 09:47:46;;;;;;;;;;;;;;;;;;6147226;23;20333;-52
2024/01/29 09:50:41;;;;;;;44.13;9.10;;;;;;;;;;6145789;23;19988;-61
2024/01/29 09:53:29;;;;;;;28.47;7.20;;;;;;;;;;6146375;23;20021;-61
2024/01/29 09:56:24;;;;;;;44.45;9.90;;;;;;;;;;6145120;23;20076;-53
2024/01/29 09:59:11;;;;;;;52.85;9.25;;;;;;;;;;6146655;23;20088;-49
2024/01/29 10:02:05;;;;;;;42.15;9.32;;;;;;;;;;6144442;23;20029;-52
2024/01/29 10:04:53;;;;;;;48.22;8.23;;;;;;;;;;6144546;23;20332;-56
2024/01/29 10:07:48;;;;;;;41.15;9.43;;;;;;;;;;6145169;23;20069;-53
2024/01/29 10:10:35;;;;;;;28.17;6.82;;;;;;;;;;6145376;23;20041;-60
2024/01/29 10:13:29;;;;;;;40.13;9.27;;;;;;;;;;6145892;23;20355;-60
2024/01/29 10:16:16;;;;;;;55.78;9.38;;;;;;;;;;6144172;23;20328;-60
2024/01/29 10:19:17;;;;;;;47.28;8.63;;;;;;;;;;6143687;23;20088;-61
2024/01/29 10:22:10;;;;;;;48.15;9.85;;;;;;;;;;6142788;23;20077;-59
2024/01/29 10:25:04;;;;;;;48.05;9.40;;;;;;;;;;6143658;23;20026;-58
2024/01/29 10:27:51;;;;;;;43.13;9.45;;;;;;;;;;6145654;23;20025;-59
2024/01/29 10:30:45;;;;;;;48.97;9.68;;;;;;;;;;6145396;23;20652;-58
2024/01/29 10:33:32;;;;;;;51.10;9.85;;;;;;;;;;6144507;23;20026;-58
2024/01/29 10:36:27;;;;;;;48.67;9.25;;;;;;;;;;6144366;23;20057;-59
2024/01/29 10:39:15;;;;;;;51.08;9.77;;;;;;;;;;6146627;23;20336;-60
2024/01/29 10:42:20;;;;;;;50.45;9.38;;;;;;;;;;6146660;23;20033;-60
2024/01/29 10:45:10;;;;;;;49.92;9.90;;;;;;;;;;6144621;23;20498;-59
2024/01/29 10:48:20;;;;;;;52.10;9.02;;;;;;;;;;6145648;23;20021;-58
2024/01/29 10:51:08;;;;;;;48.65;9.70;;;;;;;;;;6144994;23;20029;-68
2024/01/29 10:54:02;;;;;;;49.78;9.13;;;;;;;;;;6146057;23;20357;-68
2024/01/29 10:56:50;;;;;;;51.92;9.75;;;;;;;;;;6144661;23;20022;-68
2024/01/29 10:59:45;;;;;;;46.75;8.57;;;;;;;;;;6144454;23;20036;-67
2024/01/29 11:02:32;;;;;;;57.92;9.32;;;;;;;;;;6143793;23;20025;-67
2024/01/29 11:05:27;;;;;;;52.45;9.25;;;;;;;;;;6143514;23;20021;-68
2024/01/29 11:08:25;;;;;;;48.70;10.32;;;;;;;;;;6144784;23;20021;-68
2024/01/29 11:11:27;;;;;;;59.13;10.98;;;;;;;;;;6143556;23;20510;-67
2024/01/29 11:14:19;;;;;;;65.00;10.35;;;;;;;;;;6143173;23;20403;-67
2024/01/29 11:17:10;;;;;;;52.65;10.25;;;;;;;;;;6144034;23;20021;-62
2024/01/29 11:20:11;;;;;;;53.53;9.98;;;;;;;;;;6143859;23;20025;-62
2024/01/29 11:23:06;;;;;;;60.58;10.10;;;;;;;;;;6143373;23;20021;-61
2024/01/29 11:26:00;;;;;;;56.03;10.43;;;;;;;;;;6144188;23;20022;-61
2024/01/29 11:29:02;;;;;;;54.15;10.23;;;;;;;;;;6142886;23;20191;-61
2024/01/29 11:31:51;;;;;;;55.90;10.70;;;;;;;;;;6143387;23;20017;-61
2024/01/29 11:34:43;;;;;;;52.50;10.15;;;;;;;;;;6143839;23;20029;-61
2024/01/29 11:37:45;;;;;;;57.35;10.27;;;;;;;;;;6143201;23;20105;-61
2024/01/29 11:40:46;;;;;;;56.35;9.35;;;;;;;;;;6142081;23;20022;-61
2024/01/29 11:43:40;;;;;;;47.97;9.43;;;;;;;;;;6143059;23;20030;-61
2024/01/29 11:46:34;;;;;;;50.38;10.07;;;;;;;;;;6143348;23;20022;-58
2024/01/29 11:49:25;;;;;;;53.88;10.05;;;;;;;;;;6144161;23;20033;-47
2024/01/29 11:52:19;;;;;;;53.75;9.52;;;;;;;;;;6143755;23;20731;-49
2024/01/29 11:55:07;;;;;;;53.03;11.00;;;;;;;;;;6143774;23;20036;-51
2024/01/29 11:58:01;;;;;;;78.53;10.60;;;;;;;;;;6144624;23;20455;-50
2024/01/29 12:00:54;;;;;;;68.72;12.75;;;;;;;;;;6143914;23;20295;-55
2024/01/29 12:03:48;;;;;;;66.07;12.25;;;;;;;;;;6144586;23;20021;-60
2024/01/29 12:06:36;;;;;;;55.58;10.93;;;;;;;;;;6144827;23;20106;-60
2024/01/29 12:09:28;;;;;;;54.25;11.38;;;;;;;;;;6146543;23;20029;-60
2024/01/29 12:12:18;;;;;;;54.55;11.15;;;;;;;;;;6144377;23;20032;-60
2024/01/29 12:15:06;;;;;;;75.97;12.77;;;;;;;;;;6143057;23;20025;-56
2024/01/29 12:18:13;;;;;;;63.90;13.55;;;;;;;;;;6144665;23;20019;-61
2024/01/29 12:21:07;;;;;;;72.38;11.50;;;;;;;;;;6144449;23;20022;-62
2024/01/29 12:24:02;;;;;;;59.75;12.63;;;;;;;;;;6143762;23;20032;-62
2024/01/29 12:26:48;;;;;;;63.80;11.68;;;;;;;;;;6143847;23;20026;-62
2024/01/29 12:29:43;;;;;;;71.80;14.20;;;;;;;;;;6143776;23;20025;-62
2024/01/29 12:32:39;;;;;;;64.20;11.98;;;;;;;;;;6143391;23;20025;-61
2024/01/29 12:35:31;;;;;;;62.95;12.60;;;;;;;;;;6142216;23;20536;-61
2024/01/29 12:38:25;;;;;;;62.47;11.90;;;;;;;;;;6145091;23;20028;-61
2024/01/29 12:41:12;;;;;;;67.22;13.20;;;;;;;;;;6143764;23;20076;-62
2024/01/29 12:44:10;;;;;;;74.75;13.30;;;;;;;;;;6143210;23;20025;-64
2024/01/29 12:46:56;;;;;;;66.15;13.50;;;;;;;;;;6142668;23;20028;-61
2024/01/29 12:49:50;;;;;;;58.72;13.27;;;;;;;;;;6144678;23;20021;-62
2024/01/29 12:52:37;;;;;;;68.05;12.60;;;;;;;;;;6145387;23;20153;-61
2024/01/29 12:55:31;;;;;;;64.28;13.25;;;;;;;;;;6144970;23;20026;-61
2024/01/29 12:58:25;;;;;;;68.25;13.50;;;;;;;;;;6144212;23;20033;-61
2024/01/29 13:01:19;;;;;;;69.03;13.98;;;;;;;;;;6146432;23;20060;-66
2024/01/29 13:04:07;;;;;;;59.15;13.10;;;;;;;;;;6146003;23;20354;-68
2024/01/29 13:07:00;;;;;;;75.45;15.65;;;;;;;;;;6145412;23;20053;-67
2024/01/29 13:09:57;;;;;;;79.32;14.65;;;;;;;;;;6145979;23;20384;-59
2024/01/29 13:12:48;;;;;;;68.43;13.57;;;;;;;;;;6147059;23;20021;-62
2024/01/29 13:15:42;;;;;;;68.68;16.13;;;;;;;;;;6146049;23;20404;-62
2024/01/29 13:18:36;;;;;;;78.65;13.82;;;;;;;;;;6145966;23;20679;-61
2024/01/29 13:21:36;;;;;;;79.05;15.05;;;;;;;;;;6144099;23;20479;-61
2024/01/29 13:24:23;;;;;;;93.60;16.83;;;;;;;;;;6146545;23;20025;-61
2024/01/29 13:27:17;;;;;;;86.05;16.50;;;;;;;;;;6144875;23;20053;-61
2024/01/29 13:30:05;;;;;;;80.07;14.88;;;;;;;;;;6145591;23;20120;-58
2024/01/29 13:32:59;;;;;;;83.60;16.70;;;;;;;;;;6144142;23;20124;-57
2024/01/29 13:35:49;;;;;;;79.95;16.52;;;;;;;;;;6144412;23;20029;-59
2024/01/29 13:38:40;;;;;;;78.65;16.55;;;;;;;;;;6145508;23;20026;-67
2024/01/29 13:41:34;;;;;;;95.90;16.30;;;;;;;;;;6145511;23;20025;-68
2024/01/29 13:44:21;;;;;;;86.10;15.93;;;;;;;;;;6144330;23;20112;-68
2024/01/29 13:47:16;;;;;;;89.82;16.98;;;;;;;;;;6143702;23;20100;-68
2024/01/29 13:50:10;;;;;;;100.65;17.92;;;;;;;;;;6143031;23;20096;-68
2024/01/29 13:52:57;;;;;;;99.72;17.33;;;;;;;;;;6144536;23;20120;-68
2024/01/29 13:55:51;;;;;;;94.68;18.13;;;;;;;;;;6144192;23;20422;-68
2024/01/29 13:58:38;;;;;;;84.30;16.25;;;;;;;;;;6145163;23;20080;-52
2024/01/29 14:01:33;;;;;;;94.03;17.27;;;;;;;;;;6143588;23;20088;-52
2024/01/29 14:04:19;;;;;;;81.63;16.75;;;;;;;;;;6145534;23;20096;-52
2024/01/29 14:07:13;;;;;;;91.20;17.83;;;;;;;;;;6145469;23;20368;-54
2024/01/29 14:10:02;;;;;;;95.57;17.70;;;;;;;;;;6145854;23;20029;-61
2024/01/29 14:12:54;;;;;;;90.30;18.27;;;;;;;;;;6146849;23;20025;-61
2024/01/29 14:15:50;;;;;;;105.70;18.23;;;;;;;;;;6146003;23;20036;-61
2024/01/29 14:18:42;;;;;;;94.28;18.52;;;;;;;;;;6144330;23;20587;-61
2024/01/29 14:21:43;;;;;;;98.30;18.23;;;;;;;;;;6145089;23;20057;-61
2024/01/29 14:24:32;;;;;;;93.05;18.13;;;;;;;;;;6146847;23;20032;-61
2024/01/29 14:27:27;;;;;;;97.63;18.17;;;;;;;;;;6144614;23;20073;-61
2024/01/29 14:30:15;;;;;;;103.65;18.63;;;;;;;;;;6144783;23;20017;-61
2024/01/29 14:33:08;;;;;;;88.47;17.15;;;;;;;;;;6144446;23;20076;-61
2024/01/29 14:35:56;;;;;;;100.75;18.73;;;;;;;;;;6143209;23;20374;-68
2024/01/29 14:38:55;;;;;;;102.32;19.20;;;;;;;;;;6144448;23;20581;-59
2024/01/29 14:41:47;;;;;;;89.43;17.42;;;;;;;;;;6143565;23;20510;-58
2024/01/29 14:44:41;;;;;;;102.22;18.08;;;;;;;;;;6142971;23;20025;-58
2024/01/29 14:47:35;;;;;;;101.97;19.13;;;;;;;;;;6143842;23;20743;-58
2024/01/29 14:50:29;;;;;;;103.15;17.92;;;;;;;;;;6144368;23;20049;-58
2024/01/29 14:53:16;;;;;;;82.80;16.20;;;;;;;;;;6144119;23;20057;-68
2024/01/29 14:56:12;;;;;;;94.25;18.08;;;;;;;;;;6141924;23;20053;-67
2024/01/29 14:58:59;;;;;;;107.70;19.70;;;;;;;;;;6144334;23;20194;-67
2024/01/29 15:01:53;;;;;;;95.10;17.65;;;;;;;;;;6143570;23;20396;-68
2024/01/29 15:04:40;;;;;;;105.95;19.30;;;;;;;;;;6143347;23;20048;-62
2024/01/29 15:07:34;;;;;;;97.65;18.05;;;;;;;;;;6143294;23;20030;-53
2024/01/29 15:10:22;;;;;;;97.18;18.55;;;;;;;;;;6143599;23;20026;-52
2024/01/29 15:13:15;;;;;;;78.80;17.33;;;;;;;;;;6147488;23;20080;-53
2024/01/29 15:16:03;;;;;;;98.10;19.83;;;;;;;;;;6142854;23;20076;-52
2024/01/29 15:19:09;;;;;;;101.35;18.23;;;;;;;;;;6143466;23;20028;-50
2024/01/29 15:22:04;;;;;;;98.50;20.00;;;;;;;;;;6144482;23;20140;-64
2024/01/29 15:24:57;;;;;;;91.97;17.52;;;;;;;;;;6144834;23;20027;-64
2024/01/29 15:27:45;;;;;;;111.20;19.88;;;;;;;;;;6144064;23;20473;-64
2024/01/29 15:30:41;;;;;;;123.95;21.00;;;;;;;;;;6143876;23;20084;-63
2024/01/29 15:33:27;;;;;;;95.82;19.48;;;;;;;;;;6143484;23;20021;-63
2024/01/29 15:36:20;;;;;;;115.68;20.98;;;;;;;;;;6143253;23;20025;-67
2024/01/29 15:39:11;;;;;;;130.82;21.33;;;;;;;;;;6143378;23;20478;-67
2024/01/29 15:42:01;;;;;;;109.15;21.85;;;;;;;;;;6143342;23;20100;-68
2024/01/29 15:44:48;;;;;;;188.35;46.25;;;;;;;;;;6141916;23;20471;-68
2024/01/29 15:47:43;;;;;;;131.73;24.05;;;;;;;;;;6140139;23;20032;-67
2024/01/29 15:50:30;;;;;;;148.65;25.98;;;;;;;;;;6140495;23;20065;-61
2024/01/29 15:53:24;;;;;;;189.50;26.88;;;;;;;;;;6140580;23;20029;-61
2024/01/29 15:56:18;;;;;;;167.02;27.73;;;;;;;;;;6141352;23;20025;-61
2024/01/29 15:59:12;;;;;;;170.40;25.85;;;;;;;;;;6140179;23;20033;-61
2024/01/29 16:02:05;;;;;;;163.57;28.38;;;;;;;;;;6140198;23;20036;-50
2024/01/29 16:04:54;;;;;;;188.68;29.10;;;;;;;;;;6140366;23;20029;-58
2024/01/29 16:07:42;;;;;;;183.20;27.33;;;;;;;;;;6141192;23;20033;-58
2024/01/29 16:10:34;;;;;;;212.75;31.90;;;;;;;;;;6142024;23;20080;-59
2024/01/29 16:13:21;;;;;;;205.52;32.65;;;;;;;;;;6141920;23;20408;-59
2024/01/29 16:16:15;;;;;;;209.15;32.05;;;;;;;;;;6143151;23;20085;-59
2024/01/29 16:19:09;;;;;;;225.30;34.50;;;;;;;;;;6142339;23;20109;-59
2024/01/29 16:22:09;;;;;;;234.18;34.40;;;;;;;;;;6141684;23;20025;-58
2024/01/29 16:24:56;;;;;;;240.98;33.08;;;;;;;;;;6143308;23;20063;-59
2024/01/29 16:27:50;;;;;;;239.80;35.83;;;;;;;;;;6143635;23;20251;-58
2024/01/29 16:30:45;;;;;;;248.73;35.25;;;;;;;;;;6141368;23;20483;-59
2024/01/29 16:33:33;;;;;;;228.52;35.47;;;;;;;;;;6142724;23;20025;-54